Time;durP1;ratioP1;P1;durP2;ratioP2;P2;SDS_P1;SDS_P2;PMS_P1;PMS_P2;Temp;Humidity;BMP_temperature;BMP_pressure;BME280_temperature;BME280_humidity;BME280_pressure;Samples;Min_cycle;Max_cycle;Signal;HPM_P1;HPM_P2
2020/12/20 00:02:04;;;;;;;11.73;5.30;;;6.90;1.00;;;;;;5074866;28;20193;-74
2020/12/20 00:04:29;;;;;;;10.57;5.20;;;6.80;1.00;;;;;;5073693;28;20443;-74
2020/12/20 00:06:55;;;;;;;9.00;5.93;;;6.80;1.00;;;;;;5080182;28;20416;-74
2020/12/20 00:09:21;;;;;;;7.97;4.77;;;6.80;1.00;;;;;;5093824;28;20190;-74
2020/12/20 00:11:53;;;;;;;9.37;4.73;;;6.90;1.00;;;;;;5090599;28;20614;-74
2020/12/20 00:14:27;;;;;;;9.70;5.03;;;6.90;1.00;;;;;;5074417;28;20959;-74
2020/12/20 00:17:05;;;;;;;7.87;4.53;;;6.90;1.00;;;;;;5073779;28;20434;-75
2020/12/20 00:19:35;;;;;;;9.77;5.33;;;6.90;1.00;;;;;;5074548;28;20409;-76
2020/12/20 00:22:09;;;;;;;9.27;5.20;;;6.90;1.00;;;;;;5080197;28;20443;-76
2020/12/20 00:24:35;;;;;;;9.60;5.87;;;6.90;1.00;;;;;;5092286;28;20499;-76
2020/12/20 00:27:02;;;;;;;11.10;5.87;;;6.90;1.00;;;;;;5112858;28;20404;-76
2020/12/20 00:29:34;;;;;;;8.60;5.60;;;6.90;1.00;;;;;;5095724;28;20840;-76
2020/12/20 00:32:06;;;;;;;9.70;5.60;;;6.90;1.00;;;;;;5074179;28;20910;-75
2020/12/20 00:34:36;;;;;;;7.17;5.43;;;6.90;1.00;;;;;;5073381;28;20461;-75
2020/12/20 00:37:05;;;;;;;10.83;5.60;;;6.90;1.00;;;;;;5076740;28;20542;-76
2020/12/20 00:39:34;;;;;;;9.80;6.13;;;6.90;1.00;;;;;;5081991;28;20852;-76
2020/12/20 00:42:06;;;;;;;9.93;5.77;;;6.90;1.00;;;;;;5101353;28;20402;-75
2020/12/20 00:44:35;;;;;;;8.93;5.47;;;6.90;1.00;;;;;;5117766;28;21028;-75
2020/12/20 00:47:04;;;;;;;8.00;5.17;;;8.00;1.00;;;;;;5108855;28;20421;-75
2020/12/20 00:49:34;;;;;;;9.37;5.47;;;6.90;1.00;;;;;;5077411;28;20408;-76
2020/12/20 00:56:05;;;;;;;8.83;5.70;;;6.90;1.00;;;;;;5097348;28;20545;-76
2020/12/20 01:02:04;;;;;;;11.23;6.13;;;6.80;1.00;;;;;;5097369;28;20485;-75
2020/12/20 01:04:29;;;;;;;9.50;5.80;;;6.80;1.00;;;;;;5096954;28;20388;-76
2020/12/20 01:06:59;;;;;;;11.13;6.00;;;6.80;1.00;;;;;;5096581;28;20384;-76
2020/12/20 01:09:51;;;;;;;14.70;7.20;;;6.80;1.00;;;;;;5095711;28;20166;-77
2020/12/20 01:12:45;;;;;;;13.67;6.97;;;6.70;1.00;;;;;;5107771;28;20415;-76
2020/12/20 01:15:33;;;;;;;10.47;5.87;;;6.70;1.00;;;;;;5117339;28;20516;-76
2020/12/20 01:18:04;;;;;;;9.80;5.43;;;6.80;1.00;;;;;;5117830;28;20392;-75
2020/12/20 01:20:51;;;;;;;9.67;5.53;;;6.80;1.00;;;;;;5108449;28;20440;-76
2020/12/20 01:23:34;;;;;;;8.67;5.50;;;6.80;1.00;;;;;;5106391;28;20416;-76
2020/12/20 01:26:28;;;;;;;10.83;6.10;;;6.80;1.00;;;;;;5104208;28;20902;-75
2020/12/20 01:29:27;;;;;;;11.30;6.10;;;6.70;1.00;;;;;;5096478;28;20397;-76
2020/12/20 01:31:53;;;;;;;11.03;5.87;;;6.70;1.00;;;;;;5077539;28;20441;-74
2020/12/20 01:34:19;;;;;;;11.27;6.47;;;6.70;1.00;;;;;;5076217;28;20527;-74
2020/12/20 01:36:46;;;;;;;11.63;5.30;;;6.60;1.00;;;;;;5087974;28;20200;-74
2020/12/20 01:39:14;;;;;;;15.80;6.30;;;6.60;1.00;;;;;;5101509;28;20610;-74
2020/12/20 01:41:40;;;;;;;10.67;6.13;;;6.50;1.00;;;;;;5089263;28;20416;-74
2020/12/20 01:44:27;;;;;;;10.13;5.97;;;8.50;1.00;;;;;;5096337;28;20401;-74
2020/12/20 01:47:01;;;;;;;10.00;6.13;;;6.40;1.00;;;;;;5095504;28;20170;-73
2020/12/20 01:49:34;;;;;;;12.87;7.10;;;6.40;1.00;;;;;;5096443;28;20849;-76
2020/12/20 01:52:10;;;;;;;12.13;7.13;;;6.40;1.00;;;;;;5076622;28;20421;-76
2020/12/20 01:54:56;;;;;;;12.17;6.27;;;6.30;1.00;;;;;;5074769;28;20457;-75
2020/12/20 01:57:34;;;;;;;13.57;7.32;;;6.20;1.00;;;;;;5075574;28;20890;-77
2020/12/20 02:00:00;;;;;;;14.95;7.93;;;6.20;1.00;;;;;;5077874;28;20201;-76
2020/12/20 02:03:09;;;;;;;12.80;6.93;;;6.10;1.00;;;;;;5077338;28;20190;-75
2020/12/20 02:06:04;;;;;;;12.18;7.00;;;6.20;1.00;;;;;;5075964;28;20401;-76
2020/12/20 02:11:52;;;;;;;15.75;6.47;;;6.10;1.00;;;;;;5100921;28;20411;-75
2020/12/20 02:14:39;;;;;;;18.47;7.07;;;6.10;1.00;;;;;;5116397;28;20185;-76
2020/12/20 02:20:28;;;;;;;12.23;6.00;;;6.00;1.00;;;;;;5100100;28;20827;-76
2020/12/20 02:26:23;;;;;;;13.77;6.68;;;5.90;1.00;;;;;;5075708;28;20182;-75
2020/12/20 02:32:31;;;;;;;13.03;7.23;;;5.90;1.00;;;;;;5074893;28;20182;-76
2020/12/20 02:34:56;;;;;;;15.13;7.03;;;6.00;1.00;;;;;;5074965;28;20437;-75
2020/12/20 02:37:22;;;;;;;12.80;6.53;;;6.00;1.00;;;;;;5087628;28;20492;-75
2020/12/20 02:40:33;;;;;;;19.40;7.90;;;6.00;1.00;;;;;;5115915;28;20169;-75
2020/12/20 02:43:04;;;;;;;18.60;7.50;;;5.90;1.00;;;;;;5115657;28;20153;-75
2020/12/20 02:45:46;;;;;;;15.45;7.20;;;5.80;1.00;;;;;;5110223;28;20436;-76
2020/12/20 02:48:22;;;;;;;16.88;7.43;;;5.90;1.00;;;;;;5085822;28;20188;-74
2020/12/20 02:50:48;;;;;;;14.67;6.77;;;5.90;1.00;;;;;;5095014;28;20158;-74
2020/12/20 02:53:13;;;;;;;11.87;6.67;;;5.90;1.00;;;;;;5090643;28;20406;-74
2020/12/20 02:55:40;;;;;;;14.77;7.40;;;5.90;1.00;;;;;;5074809;28;20456;-74
2020/12/20 02:58:05;;;;;;;13.95;7.20;;;5.90;1.00;;;;;;5074785;28;20491;-74
2020/12/20 03:00:36;;;;;;;13.00;7.03;;;5.90;1.00;;;;;;5074555;28;20243;-74
2020/12/20 03:06:24;;;;;;;13.60;7.17;;;6.00;1.00;;;;;;5094393;28;20922;-75
2020/12/20 03:08:58;;;;;;;12.40;5.83;;;6.00;1.00;;;;;;5086216;28;20433;-75
2020/12/20 03:12:03;;;;;;;18.33;7.27;;;6.10;1.00;;;;;;5074473;28;20160;-75
2020/12/20 03:14:29;;;;;;;15.10;6.07;;;6.10;1.00;;;;;;5074182;28;20547;-75
2020/12/20 03:17:21;;;;;;;11.57;6.30;;;6.10;1.00;;;;;;5073006;28;20468;-76
2020/12/20 03:19:48;;;;;;;14.63;6.80;;;6.10;1.00;;;;;;5074492;28;20167;-74
2020/12/20 03:22:16;;;;;;;18.47;8.00;;;6.10;1.00;;;;;;5083028;28;20480;-74
2020/12/20 03:24:52;;;;;;;13.60;8.07;;;6.10;1.00;;;;;;5094043;28;20971;-74
2020/12/20 03:27:17;;;;;;;11.63;6.50;;;6.10;1.00;;;;;;5106411;28;20402;-74
2020/12/20 03:29:43;;;;;;;14.33;7.80;;;6.10;1.00;;;;;;5088274;28;20754;-73
2020/12/20 03:32:09;;;;;;;16.93;6.60;;;6.10;1.00;;;;;;5074022;28;20737;-74
2020/12/20 03:34:34;;;;;;;14.40;7.63;;;8.00;1.00;;;;;;5074418;28;20568;-75
2020/12/20 03:37:04;;;;;;;11.53;6.87;;;6.00;1.00;;;;;;5079138;28;20487;-76
2020/12/20 03:39:40;;;;;;;13.77;6.63;;;6.00;1.00;;;;;;5092029;28;20213;-76
2020/12/20 03:42:06;;;;;;;13.67;6.30;;;6.10;1.00;;;;;;5087489;28;20436;-76
2020/12/20 03:44:51;;;;;;;15.93;6.93;;;6.10;1.00;;;;;;5094382;28;20425;-76
2020/12/20 03:47:34;;;;;;;13.40;7.27;;;6.10;1.00;;;;;;5094159;28;20154;-76
2020/12/20 03:49:59;;;;;;;14.60;6.43;;;6.00;1.00;;;;;;5092094;28;20405;-76
2020/12/20 03:52:25;;;;;;;14.33;6.47;;;6.00;1.00;;;;;;5093044;28;20498;-75
2020/12/20 03:55:04;;;;;;;11.53;5.97;;;6.00;1.00;;;;;;5094020;28;20262;-76
2020/12/20 03:57:34;;;;;;;15.97;7.10;;;6.10;1.00;;;;;;5094315;28;20160;-76
2020/12/20 04:00:21;;;;;;;27.77;7.60;;;6.20;1.00;;;;;;5093750;28;20408;-75
2020/12/20 04:03:09;;;;;;;13.20;7.30;;;6.20;1.00;;;;;;5073941;28;20413;-76
2020/12/20 04:05:35;;;;;;;14.17;6.93;;;6.20;1.00;;;;;;5073618;28;20386;-74
2020/12/20 04:08:21;;;;;;;12.73;6.70;;;6.20;1.00;;;;;;5073322;28;20444;-74
2020/12/20 04:10:52;;;;;;;13.20;6.60;;;6.20;1.00;;;;;;5075416;28;20178;-74
2020/12/20 04:13:22;;;;;;;10.18;6.32;;;6.20;1.00;;;;;;5093668;28;20381;-74
2020/12/20 04:16:05;;;;;;;13.90;6.70;;;6.20;1.00;;;;;;5090087;28;20190;-74
2020/12/20 04:18:34;;;;;;;14.30;7.00;;;6.30;1.00;;;;;;5077928;28;20400;-74
2020/12/20 04:21:33;;;;;;;11.97;6.20;;;6.20;1.00;;;;;;5077917;28;20402;-75
2020/12/20 04:24:10;;;;;;;13.83;6.20;;;6.30;1.00;;;;;;5100578;28;20400;-76
2020/12/20 04:26:35;;;;;;;13.07;7.13;;;6.30;1.00;;;;;;5097272;28;20851;-76
2020/12/20 04:29:01;;;;;;;11.50;6.30;;;6.20;1.00;;;;;;5099020;28;20468;-76
2020/12/20 04:31:45;;;;;;;12.60;6.70;;;6.20;1.00;;;;;;5118457;28;20154;-76
2020/12/20 04:34:16;;;;;;;11.80;6.57;;;6.20;1.00;;;;;;5118140;28;20193;-74
2020/12/20 04:36:46;;;;;;;13.60;6.72;;;6.20;1.00;;;;;;5096344;28;20436;-74
2020/12/20 04:39:11;;;;;;;14.70;7.47;;;6.10;1.00;;;;;;5102297;28;20574;-74
2020/12/20 04:41:37;;;;;;;14.70;8.00;;;6.10;1.00;;;;;;5097653;28;20202;-74
2020/12/20 04:44:10;;;;;;;15.07;7.37;;;6.00;1.00;;;;;;5097528;28;20520;-74
2020/12/20 04:46:37;;;;;;;15.75;7.20;;;6.00;1.00;;;;;;5097572;28;20150;-74
2020/12/20 04:49:33;;;;;;;14.43;6.90;;;5.90;1.00;;;;;;5097768;28;20166;-74
2020/12/20 04:52:06;;;;;;;16.75;7.32;;;5.90;1.00;;;;;;5077209;28;20556;-74
2020/12/20 04:54:58;;;;;;;14.53;7.10;;;5.90;1.00;;;;;;5087822;28;20573;-74
2020/12/20 04:57:24;;;;;;;18.73;7.93;;;5.90;1.00;;;;;;5077224;28;20390;-74
2020/12/20 04:59:50;;;;;;;15.47;7.57;;;5.80;1.00;;;;;;5076887;28;20389;-74
2020/12/20 05:02:16;;;;;;;16.20;8.00;;;7.60;1.00;;;;;;5077459;28;20923;-74
2020/12/20 05:05:10;;;;;;;19.20;7.43;;;5.90;1.00;;;;;;5077545;28;20425;-75
2020/12/20 05:08:04;;;;;;;19.75;8.00;;;5.90;1.00;;;;;;5077971;28;20754;-76
2020/12/20 05:10:38;;;;;;;12.70;6.70;;;5.90;1.00;;;;;;5096895;28;20162;-76
2020/12/20 05:13:05;;;;;;;12.65;7.05;;;5.90;1.00;;;;;;5115915;28;20784;-76
2020/12/20 05:19:00;;;;;;;13.27;6.87;;;5.80;1.00;;;;;;5083845;28;20459;-76
2020/12/20 05:24:51;;;;;;;16.75;7.78;;;5.80;1.00;;;;;;5110903;28;20246;-76
2020/12/20 05:27:29;;;;;;;16.17;7.57;;;5.80;1.00;;;;;;5117201;28;20158;-76
2020/12/20 05:30:09;;;;;;;18.40;7.97;;;5.80;1.00;;;;;;5095937;28;20491;-76
2020/12/20 05:43:21;;;;;;;11.95;6.80;;;6.00;1.00;;;;;;5111149;28;20201;-76
2020/12/20 05:45:47;;;;;;;14.40;7.50;;;5.90;1.00;;;;;;5075664;28;20155;-76
2020/12/20 05:48:18;;;;;;;15.30;7.33;;;6.00;1.00;;;;;;5076924;28;20183;-76
2020/12/20 05:50:51;;;;;;;13.85;6.40;;;5.90;1.00;;;;;;5076479;28;20183;-75
2020/12/20 05:56:39;;;;;;;13.25;6.70;;;6.00;1.00;;;;;;5094349;28;20273;-76
2020/12/20 05:59:22;;;;;;;18.27;8.10;;;6.10;1.00;;;;;;5094748;28;20257;-76
2020/12/20 06:01:53;;;;;;;14.90;7.60;;;6.00;1.00;;;;;;5095900;28;20493;-76
2020/12/20 06:04:46;;;;;;;14.23;7.50;;;6.00;1.00;;;;;;5096298;28;21065;-76
2020/12/20 06:07:13;;;;;;;14.55;6.97;;;6.00;1.00;;;;;;5076714;28;20515;-74
2020/12/20 06:09:58;;;;;;;18.80;8.02;;;6.00;1.00;;;;;;5094165;28;20174;-74
2020/12/20 06:12:26;;;;;;;19.35;8.32;;;6.00;1.00;;;;;;5095365;28;20181;-74
2020/12/20 06:14:53;;;;;;;14.00;6.90;;;6.00;1.00;;;;;;5095685;28;20560;-74
2020/12/20 06:17:26;;;;;;;13.67;7.33;;;6.00;1.00;;;;;;5095498;28;20182;-74
2020/12/20 06:20:33;;;;;;;16.50;7.70;;;6.00;1.00;;;;;;5095440;28;20388;-75
2020/12/20 06:26:43;;;;;;;14.10;6.90;;;6.00;1.00;;;;;;5084532;28;20715;-76
2020/12/20 06:29:18;;;;;;;17.43;6.60;;;6.00;1.00;;;;;;5075066;28;20396;-76
2020/12/20 06:32:04;;;;;;;14.97;7.20;;;6.00;1.00;;;;;;5081180;28;20415;-76
2020/12/20 06:34:52;;;;;;;14.18;7.28;;;6.00;1.00;;;;;;5094883;28;20452;-76
2020/12/20 06:37:21;;;;;;;18.90;8.15;;;6.00;1.00;;;;;;5115605;28;20238;-74
2020/12/20 06:39:52;;;;;;;14.38;7.70;;;6.00;1.00;;;;;;5094769;28;20637;-74
2020/12/20 06:42:41;;;;;;;14.10;6.47;;;6.00;1.00;;;;;;5095101;28;20178;-74
2020/12/20 06:45:22;;;;;;;14.77;7.50;;;6.00;1.00;;;;;;5086696;28;20159;-74
2020/12/20 06:47:51;;;;;;;14.63;7.13;;;6.00;1.00;;;;;;5087823;28;20419;-74
2020/12/20 06:50:46;;;;;;;19.30;8.10;;;6.00;1.00;;;;;;5095594;28;20401;-74
2020/12/20 06:53:16;;;;;;;17.23;7.83;;;6.00;1.00;;;;;;5088054;28;20879;-74
2020/12/20 06:55:46;;;;;;;17.40;8.07;;;6.00;1.00;;;;;;5094296;28;20543;-74
2020/12/20 06:58:17;;;;;;;12.43;7.30;;;6.00;1.00;;;;;;5083004;28;20976;-75
2020/12/20 07:00:46;;;;;;;15.67;8.10;;;6.10;1.00;;;;;;5076231;28;20426;-76
2020/12/20 07:03:34;;;;;;;16.60;7.50;;;6.10;1.00;;;;;;5088144;28;20863;-77
2020/12/20 07:06:39;;;;;;;14.83;6.70;;;6.10;1.00;;;;;;5095628;28;20480;-79
2020/12/20 07:09:34;;;;;;;17.20;8.23;;;6.10;1.00;;;;;;5074739;28;20413;-78
2020/12/20 07:12:39;;;;;;;20.35;7.68;;;6.10;1.00;;;;;;5086843;28;20186;-79
2020/12/20 07:15:51;;;;;;;17.15;7.90;;;6.10;1.00;;;;;;5073808;28;20187;-80
2020/12/20 07:18:58;;;;;;;16.77;7.53;;;6.10;1.00;;;;;;5099774;28;20165;-78
2020/12/20 07:21:55;;;;;;;15.50;7.32;;;6.00;1.00;;;;;;5112801;28;20605;-79
2020/12/20 07:25:09;;;;;;;14.43;6.93;;;6.00;1.00;;;;;;5094853;28;20197;-77
2020/12/20 07:27:40;;;;;;;24.85;7.15;;;6.10;1.00;;;;;;5092898;28;20417;-78
2020/12/20 07:30:16;;;;;;;17.57;7.37;;;6.00;1.00;;;;;;5094110;28;20163;-78
2020/12/20 07:36:04;;;;;;;13.95;7.13;;;6.10;1.00;;;;;;5094182;28;20239;-76
2020/12/20 07:39:09;;;;;;;21.45;7.97;;;6.10;1.00;;;;;;5094027;28;20166;-76
2020/12/20 07:42:28;;;;;;;16.13;7.82;;;6.10;1.00;;;;;;5099059;28;20204;-79
2020/12/20 07:45:13;;;;;;;22.03;8.50;;;6.10;1.00;;;;;;5087506;28;20208;-78
2020/12/20 07:47:52;;;;;;;14.83;6.83;;;6.10;1.00;;;;;;5095181;28;20388;-79
2020/12/20 07:50:37;;;;;;;12.93;7.47;;;6.10;1.00;;;;;;5094877;28;20384;-79
2020/12/20 07:53:22;;;;;;;15.10;7.57;;;5.90;1.00;;;;;;5095302;28;20479;-79
2020/12/20 07:59:19;;;;;;;16.43;8.07;;;6.00;1.00;;;;;;5084429;28;20412;-78
2020/12/20 08:05:34;;;;;;;16.17;7.03;;;6.00;1.00;;;;;;5081942;28;20409;-78
2020/12/20 08:08:40;;;;;;;15.43;7.70;;;6.10;1.00;;;;;;5082276;28;20181;-77
2020/12/20 08:14:27;;;;;;;21.73;8.03;;;6.00;1.00;;;;;;5088838;28;20252;-73
2020/12/20 08:16:54;;;;;;;16.70;8.40;;;6.00;1.00;;;;;;5087226;28;20433;-75
2020/12/20 08:19:26;;;;;;;14.15;6.70;;;6.00;1.00;;;;;;5077172;28;20625;-74
2020/12/20 08:22:05;;;;;;;12.87;7.00;;;6.00;1.00;;;;;;5076623;28;20178;-74
2020/12/20 08:24:42;;;;;;;14.15;7.20;;;6.00;1.00;;;;;;5073645;28;20393;-74
2020/12/20 08:27:26;;;;;;;15.20;7.37;;;6.20;1.00;;;;;;5073660;28;20159;-74
2020/12/20 08:30:11;;;;;;;13.73;6.47;;;6.10;1.00;;;;;;5073425;28;20404;-76
2020/12/20 08:32:41;;;;;;;18.50;7.20;;;6.10;1.00;;;;;;5087241;28;20209;-74
2020/12/20 08:35:15;;;;;;;19.95;8.32;;;6.10;1.00;;;;;;5108179;28;20198;-74
2020/12/20 08:38:00;;;;;;;12.57;6.87;;;6.20;1.00;;;;;;5087493;28;20644;-76
2020/12/20 08:44:00;;;;;;;12.15;6.80;;;6.10;1.00;;;;;;5080808;28;20408;-77
2020/12/20 08:47:16;;;;;;;14.00;6.70;;;6.10;1.00;;;;;;5093553;28;20185;-76
2020/12/20 08:49:55;;;;;;;10.80;6.65;;;6.20;1.00;;;;;;5090457;28;20907;-76
2020/12/20 08:52:21;;;;;;;15.23;7.93;;;6.20;1.00;;;;;;5082369;28;20219;-75
2020/12/20 08:54:51;;;;;;;18.93;7.80;;;6.10;1.00;;;;;;5087472;28;20284;-74
2020/12/20 08:57:26;;;;;;;13.48;7.25;;;6.10;1.00;;;;;;5080002;28;20565;-74
2020/12/20 09:00:18;;;;;;;16.33;7.07;;;6.20;1.00;;;;;;5081299;28;20336;-74
2020/12/20 09:02:44;;;;;;;13.73;6.80;;;6.30;1.00;;;;;;5071383;28;20512;-74
2020/12/20 09:05:25;;;;;;;14.20;7.40;;;6.30;1.00;;;;;;5076747;28;20429;-74
2020/12/20 09:07:52;;;;;;;12.83;7.10;;;6.40;1.00;;;;;;5088115;28;20626;-74
2020/12/20 09:10:27;;;;;;;15.00;7.07;;;6.40;1.00;;;;;;5085537;28;20500;-75
2020/12/20 09:12:57;;;;;;;12.93;7.05;;;6.50;1.00;;;;;;5096175;28;20407;-74
2020/12/20 09:15:43;;;;;;;11.63;6.87;;;6.50;1.00;;;;;;5076552;28;20596;-74
2020/12/20 09:18:17;;;;;;;12.40;6.80;;;6.50;1.00;;;;;;5086425;28;20415;-74
2020/12/20 09:20:46;;;;;;;14.75;7.72;;;6.50;1.00;;;;;;5096998;28;20944;-75
2020/12/20 09:23:18;;;;;;;12.03;6.10;;;6.60;1.00;;;;;;5093759;28;20193;-76
2020/12/20 09:26:34;;;;;;;16.13;7.03;;;6.50;1.00;;;;;;5076134;28;20445;-76
2020/12/20 09:29:40;;;;;;;12.50;6.80;;;6.60;1.00;;;;;;5076414;28;20401;-77
2020/12/20 09:35:27;;;;;;;13.27;6.30;;;6.70;1.00;;;;;;5075758;28;20519;-80
2020/12/20 09:41:20;;;;;;;14.17;6.80;;;6.60;1.00;;;;;;5116635;28;20157;-80
2020/12/20 09:44:04;;;;;;;14.47;6.97;;;6.60;1.00;;;;;;5116624;28;20387;-76
2020/12/20 09:46:58;;;;;;;15.40;7.10;;;6.70;1.00;;;;;;5117049;28;20425;-76
2020/12/20 09:50:10;;;;;;;14.73;7.00;;;6.70;1.00;;;;;;5100343;28;20418;-76
2020/12/20 09:52:36;;;;;;;13.03;6.77;;;6.70;1.00;;;;;;5086061;28;20437;-74
2020/12/20 09:55:06;;;;;;;17.77;6.90;;;6.70;1.00;;;;;;5076107;28;20453;-75
2020/12/20 09:57:32;;;;;;;13.43;6.97;;;6.80;1.00;;;;;;5082748;28;20488;-74
2020/12/20 09:59:59;;;;;;;13.87;7.10;;;7.00;1.00;;;;;;5075974;28;20393;-74
2020/12/20 10:02:24;;;;;;;14.80;7.20;;;6.80;1.00;;;;;;5087550;28;20445;-74
2020/12/20 10:04:50;;;;;;;16.87;7.40;;;6.90;1.00;;;;;;5074426;28;20835;-74
2020/12/20 10:10:58;;;;;;;13.40;7.57;;;7.10;1.00;;;;;;5074259;28;20273;-75
2020/12/20 10:14:04;;;;;;;13.53;6.80;;;7.00;1.00;;;;;;5080093;28;20412;-75
2020/12/20 10:16:40;;;;;;;14.33;7.00;;;7.00;1.00;;;;;;5095697;28;20393;-75
2020/12/20 10:19:16;;;;;;;13.18;6.25;;;7.10;1.00;;;;;;5075651;28;20857;-75
2020/12/20 10:21:50;;;;;;;14.47;7.30;;;7.20;1.00;;;;;;5075215;28;20171;-74
2020/12/20 10:24:17;;;;;;;15.77;7.87;;;7.20;1.00;;;;;;5087860;28;20488;-74
2020/12/20 10:26:44;;;;;;;12.17;7.00;;;7.20;1.00;;;;;;5075251;28;20414;-74
2020/12/20 10:29:13;;;;;;;13.80;7.23;;;7.20;1.00;;;;;;5093996;28;20408;-74
2020/12/20 10:31:42;;;;;;;11.03;6.63;;;7.30;1.00;;;;;;5109791;28;20416;-74
2020/12/20 10:34:08;;;;;;;13.17;7.17;;;7.30;1.00;;;;;;5088357;28;20417;-74
2020/12/20 10:36:34;;;;;;;15.87;8.23;;;7.30;1.00;;;;;;5095139;28;20446;-74
2020/12/20 10:42:22;;;;;;;16.30;7.80;;;7.40;1.00;;;;;;5108135;28;20494;-76
2020/12/20 10:45:28;;;;;;;16.17;7.60;;;7.50;1.00;;;;;;5095038;28;20393;-76
2020/12/20 10:48:05;;;;;;;13.60;7.20;;;7.40;1.00;;;;;;5075228;28;20405;-76
2020/12/20 10:50:40;;;;;;;15.30;7.77;;;7.50;1.00;;;;;;5085724;28;20416;-76
2020/12/20 10:53:46;;;;;;;13.53;7.73;;;7.60;1.00;;;;;;5075236;28;20394;-76
2020/12/20 10:56:34;;;;;;;12.57;7.20;;;7.50;1.00;;;;;;5076979;28;20502;-76
2020/12/20 10:59:22;;;;;;;14.20;6.77;;;7.50;1.00;;;;;;5079757;28;20413;-76
2020/12/20 11:01:49;;;;;;;15.83;8.40;;;7.50;1.00;;;;;;5074507;28;20480;-76
2020/12/20 11:04:28;;;;;;;11.90;6.93;;;7.50;1.00;;;;;;5074313;28;20394;-76
2020/12/20 11:06:58;;;;;;;12.80;7.10;;;7.50;1.00;;;;;;5084809;28;20755;-76
2020/12/20 11:09:28;;;;;;;13.17;7.30;;;7.50;1.00;;;;;;5081034;28;20408;-74
2020/12/20 11:12:05;;;;;;;15.90;8.10;;;7.70;1.00;;;;;;5083406;28;20435;-75
2020/12/20 11:14:34;;;;;;;16.87;7.30;;;7.60;1.00;;;;;;5094411;28;20483;-75
2020/12/20 11:20:22;;;;;;;13.77;7.83;;;7.70;1.00;;;;;;5082469;28;20420;-75
2020/12/20 11:23:10;;;;;;;22.70;9.73;;;7.80;1.00;;;;;;5092592;28;20497;-75
2020/12/20 11:25:37;;;;;;;15.30;8.37;;;7.80;1.00;;;;;;5080942;28;20433;-74
2020/12/20 11:28:03;;;;;;;15.03;8.20;;;7.70;1.00;;;;;;5094427;28;20776;-75
2020/12/20 11:30:34;;;;;;;15.83;7.73;;;7.80;1.00;;;;;;5094651;28;20442;-75
2020/12/20 11:33:00;;;;;;;15.63;7.60;;;7.80;1.00;;;;;;5094259;28;20169;-75
2020/12/20 11:35:26;;;;;;;12.63;6.97;;;7.80;1.00;;;;;;5094015;28;20460;-74
2020/12/20 11:37:51;;;;;;;16.83;8.50;;;9.00;1.00;;;;;;5103793;28;20170;-76
2020/12/20 11:40:26;;;;;;;21.10;9.77;;;7.70;1.00;;;;;;5096485;28;20589;-76
2020/12/20 11:42:52;;;;;;;25.77;10.37;;;7.70;1.00;;;;;;5094257;28;20222;-76
2020/12/20 11:45:40;;;;;;;18.77;9.50;;;7.80;1.00;;;;;;5094145;28;20899;-76
2020/12/20 11:48:22;;;;;;;17.80;8.70;;;7.70;1.00;;;;;;5094101;28;20515;-76
2020/12/20 11:51:16;;;;;;;18.80;9.40;;;7.60;1.00;;;;;;5092785;28;20439;-76
2020/12/20 11:53:46;;;;;;;20.60;9.43;;;7.60;1.00;;;;;;5090582;28;20416;-75
2020/12/20 11:56:14;;;;;;;17.20;8.83;;;7.70;1.00;;;;;;5082451;28;20541;-75
2020/12/20 11:58:40;;;;;;;16.47;8.90;;;7.70;1.00;;;;;;5093900;28;20856;-75
2020/12/20 12:01:06;;;;;;;23.87;8.67;;;7.70;1.00;;;;;;5078301;28;20409;-76
2020/12/20 12:03:35;;;;;;;15.90;8.90;;;7.70;1.00;;;;;;5073673;28;20499;-75
2020/12/20 12:06:00;;;;;;;24.30;7.87;;;7.70;1.00;;;;;;5073531;28;20401;-75
2020/12/20 12:08:41;;;;;;;19.70;8.17;;;7.60;1.00;;;;;;5073854;28;20884;-75
2020/12/20 12:11:07;;;;;;;17.00;8.17;;;7.60;1.00;;;;;;5078097;28;21126;-75
2020/12/20 12:13:33;;;;;;;14.47;7.67;;;;;;;;;;5075606;28;20401;-76
2020/12/20 12:16:28;;;;;;;14.50;8.00;;;7.60;1.00;;;;;;5073470;28;20190;-76
2020/12/20 12:22:15;;;;;;;22.37;8.97;;;7.60;1.00;;;;;;5085371;28;20414;-75
2020/12/20 12:24:46;;;;;;;18.00;9.43;;;7.50;1.00;;;;;;5088063;28;20409;-75
2020/12/20 12:27:12;;;;;;;18.00;8.60;;;;;;;;;;5086852;28;20171;-75
2020/12/20 12:29:39;;;;;;;17.67;8.10;;;7.60;1.00;;;;;;5079053;28;20515;-75
2020/12/20 12:32:10;;;;;;;20.67;8.00;;;7.50;1.00;;;;;;5090477;28;20914;-74
2020/12/20 12:34:40;;;;;;;19.83;7.87;;;7.60;1.00;;;;;;5090689;28;20445;-75
2020/12/20 12:37:16;;;;;;;14.77;7.47;;;7.60;1.00;;;;;;5083499;28;20574;-75
2020/12/20 12:39:46;;;;;;;15.43;7.77;;;7.70;1.00;;;;;;5097880;28;20407;-75
2020/12/20 12:42:22;;;;;;;16.80;8.50;;;7.70;1.00;;;;;;5097541;28;20411;-75
2020/12/20 12:45:23;;;;;;;14.73;8.03;;;7.70;1.00;;;;;;5097409;28;20933;-75
2020/12/20 12:47:49;;;;;;;21.50;8.90;;;7.70;1.00;;;;;;5097559;28;20408;-75
2020/12/20 12:50:16;;;;;;;17.17;8.37;;;7.60;1.00;;;;;;5097301;28;20748;-75
2020/12/20 13:02:52;;;;;;;16.40;7.57;;;7.70;1.00;;;;;;5086351;28;20549;-79
2020/12/20 13:05:40;;;;;;;15.67;7.87;;;7.70;1.00;;;;;;5076672;28;20865;-79
2020/12/20 13:11:59;;;;;;;15.30;8.27;;;7.70;1.00;;;;;;5097290;28;20920;-78
2020/12/20 13:21:20;;;;;;;15.80;8.00;;;7.70;1.00;;;;;;5076030;28;20412;-79
2020/12/20 13:27:22;;;;;;;18.63;8.87;;;7.80;1.00;;;;;;5080852;28;20459;-78
2020/12/20 13:33:10;;;;;;;17.63;7.40;;;7.80;1.00;;;;;;5089468;28;20975;-78
2020/12/20 13:35:35;;;;;;;18.37;8.40;;;7.80;1.00;;;;;;5075844;28;20571;-79
2020/12/20 13:41:58;;;;;;;20.57;9.03;;;7.80;1.00;;;;;;5096107;28;20201;-80
2020/12/20 13:47:45;;;;;;;16.67;8.27;;;7.80;1.00;;;;;;5086012;28;20431;-77
2020/12/20 13:56:55;;;;;;;17.50;9.03;;;7.60;1.00;;;;;;5075625;28;20424;-79
2020/12/20 14:00:10;;;;;;;19.40;8.10;;;7.60;1.00;;;;;;5087937;28;20384;-79
2020/12/20 14:05:57;;;;;;;23.00;8.60;;;7.60;1.00;;;;;;5116447;28;20416;-80
2020/12/20 14:11:54;;;;;;;21.60;9.27;;;7.50;1.00;;;;;;5085015;28;20307;-81
2020/12/20 14:15:00;;;;;;;18.37;8.37;;;7.50;1.00;;;;;;5095450;28;20771;-81
2020/12/20 14:17:46;;;;;;;16.30;7.70;;;7.50;1.00;;;;;;5078372;28;20504;-81
2020/12/20 14:26:55;;;;;;;18.10;8.30;;;7.40;1.00;;;;;;5095415;28;20379;-77
2020/12/20 14:30:04;;;;;;;21.60;8.50;;;7.40;1.00;;;;;;5075986;28;20414;-77
2020/12/20 14:35:51;;;;;;;25.27;8.43;;;7.40;1.00;;;;;;5075040;28;20525;-75
2020/12/20 14:38:22;;;;;;;14.73;8.30;;;7.40;1.00;;;;;;5101133;28;20813;-75
2020/12/20 14:40:52;;;;;;;19.80;8.67;;;7.30;1.00;;;;;;5114148;28;20625;-76
2020/12/20 14:43:22;;;;;;;18.50;8.83;;;7.40;1.00;;;;;;5105524;28;20404;-76
2020/12/20 14:45:58;;;;;;;16.90;8.80;;;7.40;1.00;;;;;;5115505;28;20384;-76
2020/12/20 14:48:31;;;;;;;19.53;9.13;;;7.40;1.00;;;;;;5097011;28;20461;-75
2020/12/20 14:50:57;;;;;;;18.07;8.20;;;;;;;;;;5077298;28;20809;-74
2020/12/20 14:53:23;;;;;;;19.33;8.93;;;7.50;1.00;;;;;;5074879;28;20547;-75
2020/12/20 14:55:52;;;;;;;19.43;8.77;;;7.50;1.00;;;;;;5091689;28;20498;-76
2020/12/20 14:58:46;;;;;;;24.10;9.47;;;7.50;1.00;;;;;;5095097;28;20435;-76
2020/12/20 15:01:34;;;;;;;28.70;7.90;;;7.50;1.00;;;;;;5094602;28;20936;-76
2020/12/20 15:04:05;;;;;;;15.97;8.13;;;7.50;1.00;;;;;;5074110;28;20459;-76
2020/12/20 15:06:34;;;;;;;18.90;8.77;;;7.50;1.00;;;;;;5091833;28;20420;-76
2020/12/20 15:12:18;;;;;;;21.43;7.37;;;7.50;1.00;;;;;;5085410;28;21707;-75
2020/12/20 15:14:54;;;;;;;15.53;8.23;;;7.50;1.00;;;;;;5082912;28;20482;-75
2020/12/20 15:17:28;;;;;;;19.73;9.13;;;7.50;1.00;;;;;;5075346;28;20249;-75
2020/12/20 15:20:04;;;;;;;20.33;9.83;;;7.50;1.00;;;;;;5089083;28;20439;-75
2020/12/20 15:22:34;;;;;;;15.83;8.60;;;7.50;1.00;;;;;;5092622;28;20522;-75
2020/12/20 15:25:10;;;;;;;21.00;8.53;;;7.50;1.00;;;;;;5092872;28;20393;-76
2020/12/20 15:27:40;;;;;;;20.13;8.97;;;7.50;1.00;;;;;;5089555;28;20907;-75
2020/12/20 15:30:16;;;;;;;18.40;8.77;;;7.50;1.00;;;;;;5094499;28;20404;-75
2020/12/20 15:32:42;;;;;;;19.70;8.37;;;7.40;1.00;;;;;;5082454;28;20449;-75
2020/12/20 15:35:08;;;;;;;15.93;8.23;;;7.50;1.00;;;;;;5072802;28;20476;-75
2020/12/20 15:37:46;;;;;;;20.43;8.10;;;7.50;1.00;;;;;;5086681;28;20425;-75
2020/12/20 15:40:16;;;;;;;26.93;8.70;;;7.50;1.00;;;;;;5094567;28;20630;-75
2020/12/20 15:42:53;;;;;;;21.27;8.40;;;7.50;1.00;;;;;;5111626;28;20912;-75
2020/12/20 15:45:22;;;;;;;16.87;8.07;;;7.50;1.00;;;;;;5114674;28;20709;-75
2020/12/20 15:47:48;;;;;;;17.60;7.83;;;7.50;1.00;;;;;;5084564;28;20502;-75
2020/12/20 15:50:14;;;;;;;21.70;9.17;;;7.50;1.00;;;;;;5076079;28;20425;-75
2020/12/20 15:52:43;;;;;;;19.87;7.80;;;7.50;1.00;;;;;;5093685;28;20178;-75
2020/12/20 15:55:11;;;;;;;17.23;9.10;;;8.50;1.00;;;;;;5094029;28;20197;-75
2020/12/20 15:57:37;;;;;;;19.17;9.13;;;7.50;1.00;;;;;;5084479;28;20753;-76
2020/12/20 16:00:06;;;;;;;17.50;8.60;;;7.40;1.00;;;;;;5112027;28;20412;-76
2020/12/20 16:02:32;;;;;;;25.13;8.60;;;7.40;1.00;;;;;;5100077;28;20491;-77
2020/12/20 16:05:16;;;;;;;23.40;9.60;;;7.50;1.00;;;;;;5073677;28;20389;-77
2020/12/20 16:07:42;;;;;;;19.60;8.87;;;;;;;;;;5073263;28;20610;-75
2020/12/20 16:10:09;;;;;;;22.27;9.05;;;7.40;1.00;;;;;;5073530;28;20390;-75
2020/12/20 16:12:34;;;;;;;14.83;7.90;;;7.40;1.00;;;;;;5088475;28;20171;-74